sensor_id;sensor_type;location;lat;lon;timestamp;P1;durP1;ratioP1;P2;durP2;ratioP2
11743;SDS011;5929;51.906;7.674;2023-04-25T00:00:32;27.58;;;9.75;;
11743;SDS011;5929;51.906;7.674;2023-04-25T00:02:59;23.42;;;9.23;;
11743;SDS011;5929;51.906;7.674;2023-04-25T00:05:27;24.23;;;8.45;;
11743;SDS011;5929;51.906;7.674;2023-04-25T00:07:55;22.23;;;8.85;;
11743;SDS011;5929;51.906;7.674;2023-04-25T00:10:26;19.92;;;8.20;;
11743;SDS011;5929;51.906;7.674;2023-04-25T00:12:52;28.52;;;9.18;;
11743;SDS011;5929;51.906;7.674;2023-04-25T00:15:22;20.90;;;8.73;;
11743;SDS011;5929;51.906;7.674;2023-04-25T00:17:49;26.55;;;9.57;;
11743;SDS011;5929;51.906;7.674;2023-04-25T00:20:17;25.33;;;8.65;;
11743;SDS011;5929;51.906;7.674;2023-04-25T00:22:46;24.67;;;9.30;;
11743;SDS011;5929;51.906;7.674;2023-04-25T00:25:12;24.05;;;9.32;;
11743;SDS011;5929;51.906;7.674;2023-04-25T00:27:39;25.02;;;9.05;;
11743;SDS011;5929;51.906;7.674;2023-04-25T00:30:07;24.98;;;11.07;;
11743;SDS011;5929;51.906;7.674;2023-04-25T00:32:34;26.90;;;8.73;;
11743;SDS011;5929;51.906;7.674;2023-04-25T00:35:01;20.75;;;8.88;;
11743;SDS011;5929;51.906;7.674;2023-04-25T00:37:28;22.83;;;9.32;;
11743;SDS011;5929;51.906;7.674;2023-04-25T00:39:57;21.80;;;9.90;;
11743;SDS011;5929;51.906;7.674;2023-04-25T00:42:24;20.70;;;10.05;;
11743;SDS011;5929;51.906;7.674;2023-04-25T00:44:51;29.98;;;10.02;;
11743;SDS011;5929;51.906;7.674;2023-04-25T00:47:19;26.00;;;9.90;;
11743;SDS011;5929;51.906;7.674;2023-04-25T00:49:45;28.85;;;10.00;;
11743;SDS011;5929;51.906;7.674;2023-04-25T00:52:12;24.88;;;9.93;;
11743;SDS011;5929;51.906;7.674;2023-04-25T00:54:39;27.00;;;10.27;;
11743;SDS011;5929;51.906;7.674;2023-04-25T00:57:08;22.55;;;9.23;;
11743;SDS011;5929;51.906;7.674;2023-04-25T00:59:35;29.48;;;10.43;;
11743;SDS011;5929;51.906;7.674;2023-04-25T01:02:03;26.85;;;10.38;;
11743;SDS011;5929;51.906;7.674;2023-04-25T01:04:32;28.35;;;10.75;;
11743;SDS011;5929;51.906;7.674;2023-04-25T01:06:59;28.10;;;11.07;;
11743;SDS011;5929;51.906;7.674;2023-04-25T01:09:27;27.30;;;11.32;;
11743;SDS011;5929;51.906;7.674;2023-04-25T01:11:56;27.75;;;10.05;;
11743;SDS011;5929;51.906;7.674;2023-04-25T01:14:24;28.45;;;9.88;;
11743;SDS011;5929;51.906;7.674;2023-04-25T01:16:51;25.13;;;10.48;;
11743;SDS011;5929;51.906;7.674;2023-04-25T01:19:19;25.17;;;10.65;;
11743;SDS011;5929;51.906;7.674;2023-04-25T01:21:48;23.33;;;10.10;;
11743;SDS011;5929;51.906;7.674;2023-04-25T01:24:15;22.73;;;10.68;;
11743;SDS011;5929;51.906;7.674;2023-04-25T01:26:42;28.80;;;11.20;;
11743;SDS011;5929;51.906;7.674;2023-04-25T01:29:14;34.30;;;11.20;;
11743;SDS011;5929;51.906;7.674;2023-04-25T01:31:41;27.90;;;11.75;;
11743;SDS011;5929;51.906;7.674;2023-04-25T01:34:10;24.23;;;11.38;;
11743;SDS011;5929;51.906;7.674;2023-04-25T01:36:37;26.83;;;12.05;;
11743;SDS011;5929;51.906;7.674;2023-04-25T01:39:05;26.70;;;11.25;;
11743;SDS011;5929;51.906;7.674;2023-04-25T01:41:32;26.13;;;10.38;;
11743;SDS011;5929;51.906;7.674;2023-04-25T01:44:00;33.17;;;10.93;;
11743;SDS011;5929;51.906;7.674;2023-04-25T01:46:27;28.80;;;10.55;;
11743;SDS011;5929;51.906;7.674;2023-04-25T01:48:56;20.17;;;10.15;;
11743;SDS011;5929;51.906;7.674;2023-04-25T01:51:23;29.13;;;11.30;;
11743;SDS011;5929;51.906;7.674;2023-04-25T01:53:50;27.17;;;10.55;;
11743;SDS011;5929;51.906;7.674;2023-04-25T01:56:18;30.80;;;11.82;;
11743;SDS011;5929;51.906;7.674;2023-04-25T01:58:45;31.77;;;11.63;;
11743;SDS011;5929;51.906;7.674;2023-04-25T02:01:12;24.38;;;10.50;;
11743;SDS011;5929;51.906;7.674;2023-04-25T02:03:39;25.38;;;10.50;;
11743;SDS011;5929;51.906;7.674;2023-04-25T02:06:08;28.58;;;10.60;;
11743;SDS011;5929;51.906;7.674;2023-04-25T02:08:35;32.47;;;10.60;;
11743;SDS011;5929;51.906;7.674;2023-04-25T02:11:02;20.05;;;9.50;;
11743;SDS011;5929;51.906;7.674;2023-04-25T02:13:31;25.10;;;8.30;;
11743;SDS011;5929;51.906;7.674;2023-04-25T02:15:57;30.52;;;9.57;;
11743;SDS011;5929;51.906;7.674;2023-04-25T02:18:27;23.80;;;9.30;;
11743;SDS011;5929;51.906;7.674;2023-04-25T02:20:53;33.22;;;8.77;;
11743;SDS011;5929;51.906;7.674;2023-04-25T02:23:20;31.65;;;8.93;;
11743;SDS011;5929;51.906;7.674;2023-04-25T02:25:48;34.25;;;9.05;;
11743;SDS011;5929;51.906;7.674;2023-04-25T02:28:15;31.75;;;8.93;;
11743;SDS011;5929;51.906;7.674;2023-04-25T02:30:43;26.92;;;8.40;;
11743;SDS011;5929;51.906;7.674;2023-04-25T02:33:13;27.50;;;9.05;;
11743;SDS011;5929;51.906;7.674;2023-04-25T02:35:42;24.10;;;8.05;;
11743;SDS011;5929;51.906;7.674;2023-04-25T02:38:09;28.85;;;8.95;;
11743;SDS011;5929;51.906;7.674;2023-04-25T02:40:35;38.15;;;8.55;;
11743;SDS011;5929;51.906;7.674;2023-04-25T02:43:02;31.10;;;8.18;;
11743;SDS011;5929;51.906;7.674;2023-04-25T02:45:29;37.78;;;8.68;;
11743;SDS011;5929;51.906;7.674;2023-04-25T02:48:00;25.05;;;8.68;;
11743;SDS011;5929;51.906;7.674;2023-04-25T02:50:27;27.90;;;8.95;;
11743;SDS011;5929;51.906;7.674;2023-04-25T02:52:54;25.15;;;8.65;;
11743;SDS011;5929;51.906;7.674;2023-04-25T02:55:23;34.53;;;10.07;;
11743;SDS011;5929;51.906;7.674;2023-04-25T02:57:51;37.80;;;9.40;;
11743;SDS011;5929;51.906;7.674;2023-04-25T03:00:20;40.55;;;9.18;;
11743;SDS011;5929;51.906;7.674;2023-04-25T03:02:47;40.15;;;10.32;;
11743;SDS011;5929;51.906;7.674;2023-04-25T03:05:16;29.83;;;9.23;;
11743;SDS011;5929;51.906;7.674;2023-04-25T03:07:43;43.28;;;9.20;;
11743;SDS011;5929;51.906;7.674;2023-04-25T03:10:10;35.50;;;9.65;;
11743;SDS011;5929;51.906;7.674;2023-04-25T03:12:38;33.05;;;9.23;;
11743;SDS011;5929;51.906;7.674;2023-04-25T03:15:05;34.30;;;9.32;;
11743;SDS011;5929;51.906;7.674;2023-04-25T03:17:32;33.67;;;8.73;;
11743;SDS011;5929;51.906;7.674;2023-04-25T03:19:59;33.95;;;9.68;;
11743;SDS011;5929;51.906;7.674;2023-04-25T03:22:30;38.17;;;10.60;;
11743;SDS011;5929;51.906;7.674;2023-04-25T03:24:57;42.35;;;8.85;;
11743;SDS011;5929;51.906;7.674;2023-04-25T03:27:23;35.75;;;8.98;;
11743;SDS011;5929;51.906;7.674;2023-04-25T03:29:51;29.98;;;8.57;;
11743;SDS011;5929;51.906;7.674;2023-04-25T03:32:18;34.78;;;9.05;;
11743;SDS011;5929;51.906;7.674;2023-04-25T03:34:45;43.97;;;11.25;;
11743;SDS011;5929;51.906;7.674;2023-04-25T03:37:12;32.95;;;8.77;;
11743;SDS011;5929;51.906;7.674;2023-04-25T03:39:40;34.65;;;7.90;;
11743;SDS011;5929;51.906;7.674;2023-04-25T03:42:07;42.70;;;9.88;;
11743;SDS011;5929;51.906;7.674;2023-04-25T03:44:34;39.70;;;8.25;;
11743;SDS011;5929;51.906;7.674;2023-04-25T03:47:01;39.45;;;8.75;;
11743;SDS011;5929;51.906;7.674;2023-04-25T03:49:28;36.78;;;10.55;;
11743;SDS011;5929;51.906;7.674;2023-04-25T03:51:55;40.33;;;8.60;;
11743;SDS011;5929;51.906;7.674;2023-04-25T03:54:22;37.30;;;9.00;;
11743;SDS011;5929;51.906;7.674;2023-04-25T03:56:50;34.70;;;8.98;;
11743;SDS011;5929;51.906;7.674;2023-04-25T03:59:17;31.33;;;9.18;;
11743;SDS011;5929;51.906;7.674;2023-04-25T04:01:43;35.15;;;8.68;;
11743;SDS011;5929;51.906;7.674;2023-04-25T04:04:10;33.58;;;9.48;;
11743;SDS011;5929;51.906;7.674;2023-04-25T04:06:37;35.30;;;9.25;;
11743;SDS011;5929;51.906;7.674;2023-04-25T04:09:04;37.03;;;9.43;;
11743;SDS011;5929;51.906;7.674;2023-04-25T04:11:34;39.47;;;9.27;;
11743;SDS011;5929;51.906;7.674;2023-04-25T04:14:04;33.97;;;9.30;;
11743;SDS011;5929;51.906;7.674;2023-04-25T04:16:31;40.92;;;9.48;;
11743;SDS011;5929;51.906;7.674;2023-04-25T04:18:58;37.22;;;11.25;;
11743;SDS011;5929;51.906;7.674;2023-04-25T04:21:25;37.60;;;9.13;;
11743;SDS011;5929;51.906;7.674;2023-04-25T04:23:52;32.60;;;9.02;;
11743;SDS011;5929;51.906;7.674;2023-04-25T04:26:19;38.65;;;10.18;;
11743;SDS011;5929;51.906;7.674;2023-04-25T04:28:48;37.33;;;8.80;;
11743;SDS011;5929;51.906;7.674;2023-04-25T04:31:19;38.78;;;9.85;;
11743;SDS011;5929;51.906;7.674;2023-04-25T04:33:46;36.35;;;9.57;;
11743;SDS011;5929;51.906;7.674;2023-04-25T04:36:13;38.83;;;10.00;;
11743;SDS011;5929;51.906;7.674;2023-04-25T04:38:41;47.22;;;9.30;;
11743;SDS011;5929;51.906;7.674;2023-04-25T04:41:08;30.10;;;9.15;;
11743;SDS011;5929;51.906;7.674;2023-04-25T04:43:35;31.65;;;9.15;;
11743;SDS011;5929;51.906;7.674;2023-04-25T04:46:04;38.90;;;9.85;;
11743;SDS011;5929;51.906;7.674;2023-04-25T04:48:33;37.65;;;10.45;;
11743;SDS011;5929;51.906;7.674;2023-04-25T04:51:00;39.55;;;9.85;;
11743;SDS011;5929;51.906;7.674;2023-04-25T04:53:27;32.40;;;8.80;;
11743;SDS011;5929;51.906;7.674;2023-04-25T04:55:54;32.17;;;9.35;;
11743;SDS011;5929;51.906;7.674;2023-04-25T04:58:21;30.45;;;9.68;;
11743;SDS011;5929;51.906;7.674;2023-04-25T05:00:48;30.92;;;9.23;;
11743;SDS011;5929;51.906;7.674;2023-04-25T05:03:15;39.40;;;8.80;;
11743;SDS011;5929;51.906;7.674;2023-04-25T05:05:43;33.08;;;8.85;;
11743;SDS011;5929;51.906;7.674;2023-04-25T05:08:10;30.25;;;8.80;;
11743;SDS011;5929;51.906;7.674;2023-04-25T05:10:37;29.35;;;8.73;;
11743;SDS011;5929;51.906;7.674;2023-04-25T05:13:04;31.73;;;8.13;;
11743;SDS011;5929;51.906;7.674;2023-04-25T05:15:31;32.13;;;8.82;;
11743;SDS011;5929;51.906;7.674;2023-04-25T05:17:58;31.20;;;8.35;;
11743;SDS011;5929;51.906;7.674;2023-04-25T05:20:25;26.13;;;8.45;;
11743;SDS011;5929;51.906;7.674;2023-04-25T05:22:55;39.05;;;8.63;;
11743;SDS011;5929;51.906;7.674;2023-04-25T05:25:22;22.75;;;7.60;;
11743;SDS011;5929;51.906;7.674;2023-04-25T05:27:49;27.00;;;7.72;;
11743;SDS011;5929;51.906;7.674;2023-04-25T05:30:19;26.48;;;8.25;;
11743;SDS011;5929;51.906;7.674;2023-04-25T05:32:46;27.02;;;8.00;;
11743;SDS011;5929;51.906;7.674;2023-04-25T05:35:15;31.85;;;6.75;;
11743;SDS011;5929;51.906;7.674;2023-04-25T05:37:42;23.92;;;7.03;;
11743;SDS011;5929;51.906;7.674;2023-04-25T05:40:11;20.23;;;6.22;;
11743;SDS011;5929;51.906;7.674;2023-04-25T05:42:38;24.77;;;6.97;;
11743;SDS011;5929;51.906;7.674;2023-04-25T05:45:06;26.77;;;6.75;;
11743;SDS011;5929;51.906;7.674;2023-04-25T05:47:33;23.55;;;6.75;;
11743;SDS011;5929;51.906;7.674;2023-04-25T05:50:00;22.00;;;6.65;;
11743;SDS011;5929;51.906;7.674;2023-04-25T05:52:27;21.13;;;6.13;;
11743;SDS011;5929;51.906;7.674;2023-04-25T05:54:54;26.70;;;6.55;;
11743;SDS011;5929;51.906;7.674;2023-04-25T05:57:23;24.17;;;6.22;;
11743;SDS011;5929;51.906;7.674;2023-04-25T05:59:50;22.35;;;6.22;;
11743;SDS011;5929;51.906;7.674;2023-04-25T06:02:18;19.35;;;6.50;;
11743;SDS011;5929;51.906;7.674;2023-04-25T06:04:45;28.80;;;6.43;;
11743;SDS011;5929;51.906;7.674;2023-04-25T06:07:12;24.40;;;5.32;;
11743;SDS011;5929;51.906;7.674;2023-04-25T06:09:39;21.70;;;6.82;;
11743;SDS011;5929;51.906;7.674;2023-04-25T06:12:06;19.83;;;5.30;;
11743;SDS011;5929;51.906;7.674;2023-04-25T06:14:34;19.25;;;5.13;;
11743;SDS011;5929;51.906;7.674;2023-04-25T06:17:02;19.75;;;5.47;;
11743;SDS011;5929;51.906;7.674;2023-04-25T06:19:31;26.88;;;7.05;;
11743;SDS011;5929;51.906;7.674;2023-04-25T06:22:01;24.48;;;5.40;;
11743;SDS011;5929;51.906;7.674;2023-04-25T06:24:30;13.85;;;4.50;;
11743;SDS011;5929;51.906;7.674;2023-04-25T06:26:57;17.40;;;4.80;;
11743;SDS011;5929;51.906;7.674;2023-04-25T06:29:24;20.67;;;5.43;;
11743;SDS011;5929;51.906;7.674;2023-04-25T06:31:52;15.77;;;4.07;;
11743;SDS011;5929;51.906;7.674;2023-04-25T06:34:19;16.17;;;4.32;;
11743;SDS011;5929;51.906;7.674;2023-04-25T06:36:46;14.18;;;4.10;;
11743;SDS011;5929;51.906;7.674;2023-04-25T06:39:13;16.35;;;3.45;;
11743;SDS011;5929;51.906;7.674;2023-04-25T06:41:39;18.73;;;4.00;;
11743;SDS011;5929;51.906;7.674;2023-04-25T06:44:06;16.77;;;4.13;;
11743;SDS011;5929;51.906;7.674;2023-04-25T06:46:33;17.27;;;4.57;;
11743;SDS011;5929;51.906;7.674;2023-04-25T06:49:01;12.85;;;3.20;;
11743;SDS011;5929;51.906;7.674;2023-04-25T06:51:28;16.75;;;3.95;;
11743;SDS011;5929;51.906;7.674;2023-04-25T06:53:55;17.38;;;4.07;;
11743;SDS011;5929;51.906;7.674;2023-04-25T06:56:22;12.45;;;3.72;;
11743;SDS011;5929;51.906;7.674;2023-04-25T06:58:49;14.00;;;3.80;;
11743;SDS011;5929;51.906;7.674;2023-04-25T07:01:16;16.35;;;4.03;;
11743;SDS011;5929;51.906;7.674;2023-04-25T07:03:43;15.35;;;3.70;;
11743;SDS011;5929;51.906;7.674;2023-04-25T07:06:11;14.88;;;3.13;;
11743;SDS011;5929;51.906;7.674;2023-04-25T07:08:38;16.08;;;3.58;;
11743;SDS011;5929;51.906;7.674;2023-04-25T07:11:04;20.00;;;4.25;;
11743;SDS011;5929;51.906;7.674;2023-04-25T07:13:31;15.98;;;4.38;;
11743;SDS011;5929;51.906;7.674;2023-04-25T07:15:58;16.52;;;3.88;;
11743;SDS011;5929;51.906;7.674;2023-04-25T07:18:26;13.35;;;2.92;;
11743;SDS011;5929;51.906;7.674;2023-04-25T07:20:52;16.52;;;4.00;;
11743;SDS011;5929;51.906;7.674;2023-04-25T07:23:21;17.23;;;4.20;;
11743;SDS011;5929;51.906;7.674;2023-04-25T07:25:47;15.25;;;3.53;;
11743;SDS011;5929;51.906;7.674;2023-04-25T07:28:14;16.88;;;3.95;;
11743;SDS011;5929;51.906;7.674;2023-04-25T07:30:41;15.52;;;3.65;;
11743;SDS011;5929;51.906;7.674;2023-04-25T07:33:08;16.77;;;3.60;;
11743;SDS011;5929;51.906;7.674;2023-04-25T07:35:35;13.02;;;3.55;;
11743;SDS011;5929;51.906;7.674;2023-04-25T07:38:02;14.80;;;3.58;;
11743;SDS011;5929;51.906;7.674;2023-04-25T07:40:30;16.55;;;3.38;;
11743;SDS011;5929;51.906;7.674;2023-04-25T07:42:57;12.93;;;2.80;;
11743;SDS011;5929;51.906;7.674;2023-04-25T07:45:24;17.13;;;3.40;;
11743;SDS011;5929;51.906;7.674;2023-04-25T07:47:50;11.48;;;2.95;;
11743;SDS011;5929;51.906;7.674;2023-04-25T07:50:17;13.60;;;3.20;;
11743;SDS011;5929;51.906;7.674;2023-04-25T07:52:44;13.73;;;3.53;;
11743;SDS011;5929;51.906;7.674;2023-04-25T07:55:11;16.50;;;3.58;;
11743;SDS011;5929;51.906;7.674;2023-04-25T07:57:39;10.25;;;3.05;;
11743;SDS011;5929;51.906;7.674;2023-04-25T08:00:07;9.90;;;3.95;;
11743;SDS011;5929;51.906;7.674;2023-04-25T08:02:36;12.07;;;3.33;;
11743;SDS011;5929;51.906;7.674;2023-04-25T08:05:04;13.20;;;2.90;;
11743;SDS011;5929;51.906;7.674;2023-04-25T08:07:33;15.73;;;3.33;;
11743;SDS011;5929;51.906;7.674;2023-04-25T08:10:00;12.88;;;2.80;;
11743;SDS011;5929;51.906;7.674;2023-04-25T08:12:26;10.70;;;2.42;;
11743;SDS011;5929;51.906;7.674;2023-04-25T08:14:55;13.98;;;3.55;;
11743;SDS011;5929;51.906;7.674;2023-04-25T08:17:21;15.60;;;3.00;;
11743;SDS011;5929;51.906;7.674;2023-04-25T08:19:48;14.68;;;3.13;;
11743;SDS011;5929;51.906;7.674;2023-04-25T08:22:15;12.77;;;2.97;;
11743;SDS011;5929;51.906;7.674;2023-04-25T08:24:42;16.08;;;3.05;;
11743;SDS011;5929;51.906;7.674;2023-04-25T08:27:09;10.15;;;2.67;;
11743;SDS011;5929;51.906;7.674;2023-04-25T08:29:36;9.70;;;2.80;;
11743;SDS011;5929;51.906;7.674;2023-04-25T08:32:04;10.63;;;2.80;;
11743;SDS011;5929;51.906;7.674;2023-04-25T08:34:31;12.50;;;2.80;;
11743;SDS011;5929;51.906;7.674;2023-04-25T08:37:00;15.13;;;2.85;;
11743;SDS011;5929;51.906;7.674;2023-04-25T08:39:29;11.05;;;2.80;;
11743;SDS011;5929;51.906;7.674;2023-04-25T08:41:56;11.25;;;2.88;;
11743;SDS011;5929;51.906;7.674;2023-04-25T08:44:22;10.45;;;2.55;;
11743;SDS011;5929;51.906;7.674;2023-04-25T08:46:50;10.57;;;2.67;;
11743;SDS011;5929;51.906;7.674;2023-04-25T08:49:19;12.70;;;2.55;;
11743;SDS011;5929;51.906;7.674;2023-04-25T08:51:47;8.65;;;2.13;;
11743;SDS011;5929;51.906;7.674;2023-04-25T08:54:15;14.57;;;2.92;;
11743;SDS011;5929;51.906;7.674;2023-04-25T08:56:43;12.93;;;2.63;;
11743;SDS011;5929;51.906;7.674;2023-04-25T08:59:11;9.48;;;2.50;;
11743;SDS011;5929;51.906;7.674;2023-04-25T09:01:38;14.23;;;3.35;;
11743;SDS011;5929;51.906;7.674;2023-04-25T09:04:06;11.10;;;2.88;;
11743;SDS011;5929;51.906;7.674;2023-04-25T09:06:34;11.68;;;2.83;;
11743;SDS011;5929;51.906;7.674;2023-04-25T09:09:02;15.48;;;3.22;;
11743;SDS011;5929;51.906;7.674;2023-04-25T09:11:31;9.23;;;1.85;;
11743;SDS011;5929;51.906;7.674;2023-04-25T09:14:10;10.07;;;2.42;;
11743;SDS011;5929;51.906;7.674;2023-04-25T09:19:27;10.85;;;2.35;;
11743;SDS011;5929;51.906;7.674;2023-04-25T09:21:57;10.70;;;2.72;;
11743;SDS011;5929;51.906;7.674;2023-04-25T09:24:31;11.18;;;2.58;;
11743;SDS011;5929;51.906;7.674;2023-04-25T09:27:02;8.68;;;2.10;;
11743;SDS011;5929;51.906;7.674;2023-04-25T09:29:30;11.63;;;1.77;;
11743;SDS011;5929;51.906;7.674;2023-04-25T09:32:10;6.35;;;1.73;;
11743;SDS011;5929;51.906;7.674;2023-04-25T09:34:39;7.03;;;1.55;;
11743;SDS011;5929;51.906;7.674;2023-04-25T09:37:08;9.27;;;1.92;;
11743;SDS011;5929;51.906;7.674;2023-04-25T09:39:36;9.50;;;1.98;;
11743;SDS011;5929;51.906;7.674;2023-04-25T09:42:03;7.55;;;1.85;;
11743;SDS011;5929;51.906;7.674;2023-04-25T09:44:33;8.55;;;1.90;;
11743;SDS011;5929;51.906;7.674;2023-04-25T09:47:00;9.77;;;2.08;;
11743;SDS011;5929;51.906;7.674;2023-04-25T09:49:27;13.05;;;1.95;;
11743;SDS011;5929;51.906;7.674;2023-04-25T09:51:54;7.78;;;1.90;;
11743;SDS011;5929;51.906;7.674;2023-04-25T09:54:24;10.60;;;2.20;;
11743;SDS011;5929;51.906;7.674;2023-04-25T09:56:51;11.52;;;2.13;;
11743;SDS011;5929;51.906;7.674;2023-04-25T09:59:19;12.55;;;2.30;;
11743;SDS011;5929;51.906;7.674;2023-04-25T10:01:46;12.25;;;1.95;;
11743;SDS011;5929;51.906;7.674;2023-04-25T10:04:15;8.63;;;2.10;;
11743;SDS011;5929;51.906;7.674;2023-04-25T10:06:47;8.10;;;1.90;;
11743;SDS011;5929;51.906;7.674;2023-04-25T10:09:15;6.75;;;1.70;;
11743;SDS011;5929;51.906;7.674;2023-04-25T10:11:45;5.60;;;1.65;;
11743;SDS011;5929;51.906;7.674;2023-04-25T10:14:13;6.88;;;2.08;;
11743;SDS011;5929;51.906;7.674;2023-04-25T10:16:41;9.73;;;2.28;;
11743;SDS011;5929;51.906;7.674;2023-04-25T10:19:09;10.35;;;1.85;;
11743;SDS011;5929;51.906;7.674;2023-04-25T10:21:36;6.20;;;1.42;;
11743;SDS011;5929;51.906;7.674;2023-04-25T10:24:06;7.95;;;1.80;;
11743;SDS011;5929;51.906;7.674;2023-04-25T10:26:34;6.18;;;1.63;;
11743;SDS011;5929;51.906;7.674;2023-04-25T10:29:02;7.30;;;1.73;;
11743;SDS011;5929;51.906;7.674;2023-04-25T10:31:30;10.80;;;1.65;;
11743;SDS011;5929;51.906;7.674;2023-04-25T10:33:57;7.40;;;1.45;;
11743;SDS011;5929;51.906;7.674;2023-04-25T10:36:26;8.23;;;1.60;;
11743;SDS011;5929;51.906;7.674;2023-04-25T10:38:58;7.93;;;1.50;;
11743;SDS011;5929;51.906;7.674;2023-04-25T10:41:32;8.02;;;1.55;;
11743;SDS011;5929;51.906;7.674;2023-04-25T10:44:14;7.60;;;2.08;;
11743;SDS011;5929;51.906;7.674;2023-04-25T10:46:41;7.15;;;1.38;;
11743;SDS011;5929;51.906;7.674;2023-04-25T10:49:10;6.85;;;1.40;;
11743;SDS011;5929;51.906;7.674;2023-04-25T10:51:58;11.13;;;1.70;;
11743;SDS011;5929;51.906;7.674;2023-04-25T10:54:40;6.07;;;1.73;;
11743;SDS011;5929;51.906;7.674;2023-04-25T10:57:28;10.15;;;1.85;;
11743;SDS011;5929;51.906;7.674;2023-04-25T11:00:01;11.68;;;1.90;;
11743;SDS011;5929;51.906;7.674;2023-04-25T11:02:36;7.40;;;1.77;;
11743;SDS011;5929;51.906;7.674;2023-04-25T11:05:04;9.65;;;2.58;;
11743;SDS011;5929;51.906;7.674;2023-04-25T11:07:33;7.40;;;1.73;;
11743;SDS011;5929;51.906;7.674;2023-04-25T11:10:05;7.03;;;1.92;;
11743;SDS011;5929;51.906;7.674;2023-04-25T11:12:32;10.98;;;1.73;;
11743;SDS011;5929;51.906;7.674;2023-04-25T11:15:02;8.48;;;1.83;;
11743;SDS011;5929;51.906;7.674;2023-04-25T11:17:30;6.13;;;1.70;;
11743;SDS011;5929;51.906;7.674;2023-04-25T11:19:57;6.45;;;1.67;;
11743;SDS011;5929;51.906;7.674;2023-04-25T11:22:23;7.10;;;1.95;;
11743;SDS011;5929;51.906;7.674;2023-04-25T11:24:52;6.25;;;1.42;;
11743;SDS011;5929;51.906;7.674;2023-04-25T11:27:19;8.75;;;2.10;;
11743;SDS011;5929;51.906;7.674;2023-04-25T11:29:49;9.27;;;1.83;;
11743;SDS011;5929;51.906;7.674;2023-04-25T11:32:18;7.50;;;2.08;;
11743;SDS011;5929;51.906;7.674;2023-04-25T11:34:45;9.20;;;1.70;;
11743;SDS011;5929;51.906;7.674;2023-04-25T11:37:13;9.13;;;1.80;;
11743;SDS011;5929;51.906;7.674;2023-04-25T11:39:42;8.90;;;1.50;;
11743;SDS011;5929;51.906;7.674;2023-04-25T11:42:11;10.98;;;1.90;;
11743;SDS011;5929;51.906;7.674;2023-04-25T11:44:39;11.63;;;1.77;;
11743;SDS011;5929;51.906;7.674;2023-04-25T11:47:06;7.55;;;1.60;;
11743;SDS011;5929;51.906;7.674;2023-04-25T11:49:34;8.70;;;1.60;;
11743;SDS011;5929;51.906;7.674;2023-04-25T11:52:01;9.80;;;2.05;;
11743;SDS011;5929;51.906;7.674;2023-04-25T11:54:29;8.95;;;1.67;;
11743;SDS011;5929;51.906;7.674;2023-04-25T11:56:55;12.88;;;2.17;;
11743;SDS011;5929;51.906;7.674;2023-04-25T11:59:23;6.93;;;1.70;;
11743;SDS011;5929;51.906;7.674;2023-04-25T12:01:51;9.23;;;1.52;;
11743;SDS011;5929;51.906;7.674;2023-04-25T12:04:19;7.28;;;1.50;;
11743;SDS011;5929;51.906;7.674;2023-04-25T12:06:49;6.82;;;1.67;;
11743;SDS011;5929;51.906;7.674;2023-04-25T12:09:20;7.43;;;1.48;;
11743;SDS011;5929;51.906;7.674;2023-04-25T12:11:48;7.65;;;1.52;;
11743;SDS011;5929;51.906;7.674;2023-04-25T12:14:20;7.20;;;1.75;;
11743;SDS011;5929;51.906;7.674;2023-04-25T12:16:49;5.47;;;1.27;;
11743;SDS011;5929;51.906;7.674;2023-04-25T12:19:16;3.67;;;0.90;;
11743;SDS011;5929;51.906;7.674;2023-04-25T12:21:45;5.53;;;1.40;;
11743;SDS011;5929;51.906;7.674;2023-04-25T12:24:14;4.22;;;1.05;;
11743;SDS011;5929;51.906;7.674;2023-04-25T12:26:46;6.07;;;1.20;;
11743;SDS011;5929;51.906;7.674;2023-04-25T12:29:20;4.72;;;1.08;;
11743;SDS011;5929;51.906;7.674;2023-04-25T12:31:48;5.97;;;1.40;;
11743;SDS011;5929;51.906;7.674;2023-04-25T12:34:16;6.65;;;1.38;;
11743;SDS011;5929;51.906;7.674;2023-04-25T12:36:43;4.97;;;1.10;;
11743;SDS011;5929;51.906;7.674;2023-04-25T12:39:15;7.95;;;1.50;;
11743;SDS011;5929;51.906;7.674;2023-04-25T12:41:42;5.05;;;1.27;;
11743;SDS011;5929;51.906;7.674;2023-04-25T12:44:09;7.30;;;1.40;;
11743;SDS011;5929;51.906;7.674;2023-04-25T12:46:36;4.28;;;1.02;;
11743;SDS011;5929;51.906;7.674;2023-04-25T12:49:06;7.60;;;1.40;;
11743;SDS011;5929;51.906;7.674;2023-04-25T12:51:34;4.43;;;1.38;;
11743;SDS011;5929;51.906;7.674;2023-04-25T12:54:01;5.00;;;1.30;;
11743;SDS011;5929;51.906;7.674;2023-04-25T12:56:30;4.75;;;1.33;;
11743;SDS011;5929;51.906;7.674;2023-04-25T12:58:57;7.03;;;1.15;;
11743;SDS011;5929;51.906;7.674;2023-04-25T13:01:24;4.45;;;1.30;;
11743;SDS011;5929;51.906;7.674;2023-04-25T13:03:54;7.13;;;1.33;;
11743;SDS011;5929;51.906;7.674;2023-04-25T13:06:21;5.57;;;1.42;;
11743;SDS011;5929;51.906;7.674;2023-04-25T13:08:48;8.30;;;1.48;;
11743;SDS011;5929;51.906;7.674;2023-04-25T13:11:15;7.40;;;1.33;;
11743;SDS011;5929;51.906;7.674;2023-04-25T13:13:43;7.03;;;1.48;;
11743;SDS011;5929;51.906;7.674;2023-04-25T13:16:10;5.88;;;1.23;;
11743;SDS011;5929;51.906;7.674;2023-04-25T13:18:39;4.55;;;1.20;;
11743;SDS011;5929;51.906;7.674;2023-04-25T13:21:06;5.95;;;1.30;;
11743;SDS011;5929;51.906;7.674;2023-04-25T13:23:32;6.20;;;1.52;;
11743;SDS011;5929;51.906;7.674;2023-04-25T13:25:59;6.93;;;1.70;;
11743;SDS011;5929;51.906;7.674;2023-04-25T13:28:27;8.35;;;1.50;;
11743;SDS011;5929;51.906;7.674;2023-04-25T13:30:55;11.65;;;1.60;;
11743;SDS011;5929;51.906;7.674;2023-04-25T13:33:22;8.98;;;1.52;;
11743;SDS011;5929;51.906;7.674;2023-04-25T13:35:49;8.43;;;1.83;;
11743;SDS011;5929;51.906;7.674;2023-04-25T13:38:19;8.73;;;1.70;;
11743;SDS011;5929;51.906;7.674;2023-04-25T13:40:47;5.72;;;1.65;;
11743;SDS011;5929;51.906;7.674;2023-04-25T13:43:13;7.53;;;1.70;;
11743;SDS011;5929;51.906;7.674;2023-04-25T13:45:41;8.07;;;1.10;;
11743;SDS011;5929;51.906;7.674;2023-04-25T13:48:10;5.68;;;1.30;;
11743;SDS011;5929;51.906;7.674;2023-04-25T13:50:36;7.60;;;1.50;;
11743;SDS011;5929;51.906;7.674;2023-04-25T13:53:03;6.75;;;1.58;;
11743;SDS011;5929;51.906;7.674;2023-04-25T13:55:30;5.72;;;1.05;;
11743;SDS011;5929;51.906;7.674;2023-04-25T13:57:57;8.43;;;1.58;;
11743;SDS011;5929;51.906;7.674;2023-04-25T14:00:24;6.53;;;1.65;;
11743;SDS011;5929;51.906;7.674;2023-04-25T14:02:51;6.40;;;1.58;;
11743;SDS011;5929;51.906;7.674;2023-04-25T14:05:19;5.65;;;1.27;;
11743;SDS011;5929;51.906;7.674;2023-04-25T14:07:49;6.93;;;1.38;;
11743;SDS011;5929;51.906;7.674;2023-04-25T14:10:16;6.95;;;1.30;;
11743;SDS011;5929;51.906;7.674;2023-04-25T14:12:42;8.43;;;1.60;;
11743;SDS011;5929;51.906;7.674;2023-04-25T14:15:09;5.80;;;1.58;;
11743;SDS011;5929;51.906;7.674;2023-04-25T14:17:36;4.95;;;1.30;;
11743;SDS011;5929;51.906;7.674;2023-04-25T14:20:05;7.18;;;1.48;;
11743;SDS011;5929;51.906;7.674;2023-04-25T14:22:35;7.55;;;1.30;;
11743;SDS011;5929;51.906;7.674;2023-04-25T14:25:06;6.85;;;1.30;;
11743;SDS011;5929;51.906;7.674;2023-04-25T14:27:34;6.32;;;1.35;;
11743;SDS011;5929;51.906;7.674;2023-04-25T14:30:00;4.07;;;1.10;;
11743;SDS011;5929;51.906;7.674;2023-04-25T14:32:27;6.85;;;1.30;;
11743;SDS011;5929;51.906;7.674;2023-04-25T14:34:54;6.88;;;1.60;;
11743;SDS011;5929;51.906;7.674;2023-04-25T14:37:21;5.07;;;1.52;;
11743;SDS011;5929;51.906;7.674;2023-04-25T14:39:49;5.88;;;1.77;;
11743;SDS011;5929;51.906;7.674;2023-04-25T14:42:16;8.80;;;1.52;;
11743;SDS011;5929;51.906;7.674;2023-04-25T14:44:42;4.97;;;1.27;;
11743;SDS011;5929;51.906;7.674;2023-04-25T14:47:10;5.60;;;1.45;;
11743;SDS011;5929;51.906;7.674;2023-04-25T14:49:36;5.78;;;1.45;;
11743;SDS011;5929;51.906;7.674;2023-04-25T14:52:03;8.60;;;1.50;;
11743;SDS011;5929;51.906;7.674;2023-04-25T14:54:30;6.95;;;1.42;;
11743;SDS011;5929;51.906;7.674;2023-04-25T14:56:58;8.50;;;1.50;;